sensor_id;sensor_type;location;lat;lon;timestamp;temperature;humidity
41668;DHT22;27356;50.920;5.350;2022-09-09T00:03:27;16.10;99.90
41668;DHT22;27356;50.920;5.350;2022-09-09T00:08:19;16.10;99.90
41668;DHT22;27356;50.920;5.350;2022-09-09T00:10:45;16.00;99.90
41668;DHT22;27356;50.920;5.350;2022-09-09T00:13:19;16.00;99.90
41668;DHT22;27356;50.920;5.350;2022-09-09T00:21:32;15.90;99.90
41668;DHT22;27356;50.920;5.350;2022-09-09T00:23:34;15.90;99.90
41668;DHT22;27356;50.920;5.350;2022-09-09T00:26:03;15.80;99.90
41668;DHT22;27356;50.920;5.350;2022-09-09T00:28:30;15.70;99.90
41668;DHT22;27356;50.920;5.350;2022-09-09T00:31:00;15.60;99.90
41668;DHT22;27356;50.920;5.350;2022-09-09T00:33:28;15.60;99.90
41668;DHT22;27356;50.920;5.350;2022-09-09T00:35:58;15.60;99.90
41668;DHT22;27356;50.920;5.350;2022-09-09T00:40:58;15.50;99.90
41668;DHT22;27356;50.920;5.350;2022-09-09T00:48:18;15.40;99.90
41668;DHT22;27356;50.920;5.350;2022-09-09T00:50:48;15.30;99.90
41668;DHT22;27356;50.920;5.350;2022-09-09T00:56:25;15.30;99.90
41668;DHT22;27356;50.920;5.350;2022-09-09T01:01:26;15.20;99.90
41668;DHT22;27356;50.920;5.350;2022-09-09T01:03:53;15.10;99.90
41668;DHT22;27356;50.920;5.350;2022-09-09T01:06:29;15.20;99.90
41668;DHT22;27356;50.920;5.350;2022-09-09T01:11:27;15.10;99.90
41668;DHT22;27356;50.920;5.350;2022-09-09T01:14:05;15.10;99.90
41668;DHT22;27356;50.920;5.350;2022-09-09T01:16:35;15.00;99.90
41668;DHT22;27356;50.920;5.350;2022-09-09T01:19:01;15.00;99.90
41668;DHT22;27356;50.920;5.350;2022-09-09T01:26:44;15.00;99.90
41668;DHT22;27356;50.920;5.350;2022-09-09T01:29:14;15.00;99.90
41668;DHT22;27356;50.920;5.350;2022-09-09T01:31:41;15.10;99.90
41668;DHT22;27356;50.920;5.350;2022-09-09T01:34:11;15.10;99.90
41668;DHT22;27356;50.920;5.350;2022-09-09T01:36:42;15.20;99.90
41668;DHT22;27356;50.920;5.350;2022-09-09T01:39:09;15.20;99.90
41668;DHT22;27356;50.920;5.350;2022-09-09T01:41:35;15.30;99.90
41668;DHT22;27356;50.920;5.350;2022-09-09T01:44:00;15.30;99.90
41668;DHT22;27356;50.920;5.350;2022-09-09T01:46:26;15.20;99.90
41668;DHT22;27356;50.920;5.350;2022-09-09T01:48:53;15.30;99.90
41668;DHT22;27356;50.920;5.350;2022-09-09T01:51:19;15.30;99.90
41668;DHT22;27356;50.920;5.350;2022-09-09T01:53:44;15.30;99.90
41668;DHT22;27356;50.920;5.350;2022-09-09T02:03:58;15.50;99.90
41668;DHT22;27356;50.920;5.350;2022-09-09T02:06:30;15.50;99.90
41668;DHT22;27356;50.920;5.350;2022-09-09T02:08:59;15.50;99.90
41668;DHT22;27356;50.920;5.350;2022-09-09T02:11:27;15.50;99.90
41668;DHT22;27356;50.920;5.350;2022-09-09T02:13:54;15.60;99.90
41668;DHT22;27356;50.920;5.350;2022-09-09T02:16:31;15.50;99.90
41668;DHT22;27356;50.920;5.350;2022-09-09T02:19:02;15.50;99.90
41668;DHT22;27356;50.920;5.350;2022-09-09T02:21:30;15.50;99.90
41668;DHT22;27356;50.920;5.350;2022-09-09T02:23:57;15.50;99.90
41668;DHT22;27356;50.920;5.350;2022-09-09T02:26:24;15.50;99.90
41668;DHT22;27356;50.920;5.350;2022-09-09T02:28:51;15.50;99.90
41668;DHT22;27356;50.920;5.350;2022-09-09T02:31:18;15.40;99.90
41668;DHT22;27356;50.920;5.350;2022-09-09T02:33:46;15.40;99.90
41668;DHT22;27356;50.920;5.350;2022-09-09T02:36:13;15.40;99.90
41668;DHT22;27356;50.920;5.350;2022-09-09T02:38:42;15.40;99.90
41668;DHT22;27356;50.920;5.350;2022-09-09T02:41:10;15.40;99.90
41668;DHT22;27356;50.920;5.350;2022-09-09T02:43:36;15.40;99.90
41668;DHT22;27356;50.920;5.350;2022-09-09T02:46:16;15.50;99.90
41668;DHT22;27356;50.920;5.350;2022-09-09T02:56:40;15.50;99.90
41668;DHT22;27356;50.920;5.350;2022-09-09T02:59:07;15.50;99.90
41668;DHT22;27356;50.920;5.350;2022-09-09T03:01:33;15.50;99.90
41668;DHT22;27356;50.920;5.350;2022-09-09T03:03:58;15.40;99.90
41668;DHT22;27356;50.920;5.350;2022-09-09T03:06:24;15.40;99.90
41668;DHT22;27356;50.920;5.350;2022-09-09T03:08:49;15.40;99.90
41668;DHT22;27356;50.920;5.350;2022-09-09T03:11:16;15.30;99.90
41668;DHT22;27356;50.920;5.350;2022-09-09T03:13:41;15.30;99.90
41668;DHT22;27356;50.920;5.350;2022-09-09T03:16:07;15.50;99.90
41668;DHT22;27356;50.920;5.350;2022-09-09T03:18:32;15.50;99.90
41668;DHT22;27356;50.920;5.350;2022-09-09T03:20:59;15.60;99.90
41668;DHT22;27356;50.920;5.350;2022-09-09T03:23:25;15.60;99.90
41668;DHT22;27356;50.920;5.350;2022-09-09T03:25:50;15.60;99.90
41668;DHT22;27356;50.920;5.350;2022-09-09T03:28:17;15.60;99.90
41668;DHT22;27356;50.920;5.350;2022-09-09T03:30:43;15.60;99.90
41668;DHT22;27356;50.920;5.350;2022-09-09T03:33:08;15.70;99.90
41668;DHT22;27356;50.920;5.350;2022-09-09T03:35:34;15.80;99.90
41668;DHT22;27356;50.920;5.350;2022-09-09T03:37:59;15.80;99.90
41668;DHT22;27356;50.920;5.350;2022-09-09T03:40:26;15.90;99.90
41668;DHT22;27356;50.920;5.350;2022-09-09T03:42:51;15.90;99.90
41668;DHT22;27356;50.920;5.350;2022-09-09T03:45:17;16.00;99.90
41668;DHT22;27356;50.920;5.350;2022-09-09T03:47:43;16.00;99.90
41668;DHT22;27356;50.920;5.350;2022-09-09T03:50:08;16.10;99.90
41668;DHT22;27356;50.920;5.350;2022-09-09T03:52:36;16.10;99.90
41668;DHT22;27356;50.920;5.350;2022-09-09T03:55:02;16.10;99.90
41668;DHT22;27356;50.920;5.350;2022-09-09T03:57:28;16.10;99.90
41668;DHT22;27356;50.920;5.350;2022-09-09T03:59:55;16.10;99.90
41668;DHT22;27356;50.920;5.350;2022-09-09T04:02:20;16.20;99.90
41668;DHT22;27356;50.920;5.350;2022-09-09T04:04:46;16.20;99.90
41668;DHT22;27356;50.920;5.350;2022-09-09T04:07:12;16.20;99.90
41668;DHT22;27356;50.920;5.350;2022-09-09T04:09:38;16.20;99.90
41668;DHT22;27356;50.920;5.350;2022-09-09T04:12:03;16.00;99.90
41668;DHT22;27356;50.920;5.350;2022-09-09T04:14:29;16.00;99.90
41668;DHT22;27356;50.920;5.350;2022-09-09T04:16:55;15.80;99.90
41668;DHT22;27356;50.920;5.350;2022-09-09T04:19:22;15.90;99.90
41668;DHT22;27356;50.920;5.350;2022-09-09T04:21:48;15.80;99.90
41668;DHT22;27356;50.920;5.350;2022-09-09T04:24:16;15.80;99.90
41668;DHT22;27356;50.920;5.350;2022-09-09T04:26:43;15.70;99.90
41668;DHT22;27356;50.920;5.350;2022-09-09T04:29:08;15.80;99.90
41668;DHT22;27356;50.920;5.350;2022-09-09T04:31:34;15.80;99.90
41668;DHT22;27356;50.920;5.350;2022-09-09T04:33:59;15.70;99.90
41668;DHT22;27356;50.920;5.350;2022-09-09T04:36:30;15.80;99.90
41668;DHT22;27356;50.920;5.350;2022-09-09T04:38:56;15.90;99.90
41668;DHT22;27356;50.920;5.350;2022-09-09T04:41:22;15.80;99.90
41668;DHT22;27356;50.920;5.350;2022-09-09T04:43:48;15.90;99.90
41668;DHT22;27356;50.920;5.350;2022-09-09T04:46:14;15.90;99.90
41668;DHT22;27356;50.920;5.350;2022-09-09T04:48:42;15.80;99.90
41668;DHT22;27356;50.920;5.350;2022-09-09T04:51:08;15.70;99.90
41668;DHT22;27356;50.920;5.350;2022-09-09T04:53:36;15.80;99.90
41668;DHT22;27356;50.920;5.350;2022-09-09T04:58:28;15.70;99.90
41668;DHT22;27356;50.920;5.350;2022-09-09T05:01:06;15.70;99.90
41668;DHT22;27356;50.920;5.350;2022-09-09T05:03:31;15.60;99.90
41668;DHT22;27356;50.920;5.350;2022-09-09T05:06:07;15.50;99.90
41668;DHT22;27356;50.920;5.350;2022-09-09T05:08:34;15.60;99.90
41668;DHT22;27356;50.920;5.350;2022-09-09T05:10:59;15.60;99.90
41668;DHT22;27356;50.920;5.350;2022-09-09T05:13:25;15.60;99.90
41668;DHT22;27356;50.920;5.350;2022-09-09T05:15:54;15.60;99.90
41668;DHT22;27356;50.920;5.350;2022-09-09T05:18:20;15.70;99.90
41668;DHT22;27356;50.920;5.350;2022-09-09T05:20:46;15.80;99.90
41668;DHT22;27356;50.920;5.350;2022-09-09T05:23:12;15.80;99.90
41668;DHT22;27356;50.920;5.350;2022-09-09T05:25:38;15.80;99.90
41668;DHT22;27356;50.920;5.350;2022-09-09T05:28:05;16.00;99.90
41668;DHT22;27356;50.920;5.350;2022-09-09T05:30:32;15.90;99.90
41668;DHT22;27356;50.920;5.350;2022-09-09T05:32:58;15.90;99.90
41668;DHT22;27356;50.920;5.350;2022-09-09T05:35:23;16.00;99.90
41668;DHT22;27356;50.920;5.350;2022-09-09T05:37:49;15.90;99.90
41668;DHT22;27356;50.920;5.350;2022-09-09T05:40:14;16.00;99.90
41668;DHT22;27356;50.920;5.350;2022-09-09T05:42:40;16.10;99.90
41668;DHT22;27356;50.920;5.350;2022-09-09T05:45:06;16.20;99.90
41668;DHT22;27356;50.920;5.350;2022-09-09T05:47:33;16.20;99.90
41668;DHT22;27356;50.920;5.350;2022-09-09T05:49:59;16.20;99.90
41668;DHT22;27356;50.920;5.350;2022-09-09T05:52:24;16.40;99.90
41668;DHT22;27356;50.920;5.350;2022-09-09T05:54:51;16.40;99.90
41668;DHT22;27356;50.920;5.350;2022-09-09T05:57:17;16.40;99.90
41668;DHT22;27356;50.920;5.350;2022-09-09T05:59:44;16.40;99.90
41668;DHT22;27356;50.920;5.350;2022-09-09T06:02:09;16.60;99.90
41668;DHT22;27356;50.920;5.350;2022-09-09T06:04:37;16.50;99.90
41668;DHT22;27356;50.920;5.350;2022-09-09T06:07:02;16.50;99.90
41668;DHT22;27356;50.920;5.350;2022-09-09T06:09:28;16.60;99.90
41668;DHT22;27356;50.920;5.350;2022-09-09T06:11:55;16.50;99.90
41668;DHT22;27356;50.920;5.350;2022-09-09T06:14:22;16.60;99.90
41668;DHT22;27356;50.920;5.350;2022-09-09T06:16:48;16.80;99.90
41668;DHT22;27356;50.920;5.350;2022-09-09T06:19:14;16.90;99.90
41668;DHT22;27356;50.920;5.350;2022-09-09T06:21:39;16.90;99.90
41668;DHT22;27356;50.920;5.350;2022-09-09T06:24:06;17.10;99.90
41668;DHT22;27356;50.920;5.350;2022-09-09T06:26:33;17.20;99.90
41668;DHT22;27356;50.920;5.350;2022-09-09T06:28:59;17.30;99.90
41668;DHT22;27356;50.920;5.350;2022-09-09T06:31:26;17.50;99.90
41668;DHT22;27356;50.920;5.350;2022-09-09T06:33:55;17.70;99.90
41668;DHT22;27356;50.920;5.350;2022-09-09T06:36:25;18.20;99.90
41668;DHT22;27356;50.920;5.350;2022-09-09T06:38:51;18.80;99.90
41668;DHT22;27356;50.920;5.350;2022-09-09T06:41:17;19.70;99.90
41668;DHT22;27356;50.920;5.350;2022-09-09T06:43:44;20.30;99.90
41668;DHT22;27356;50.920;5.350;2022-09-09T06:46:10;20.90;99.90
41668;DHT22;27356;50.920;5.350;2022-09-09T06:48:36;21.40;99.90
41668;DHT22;27356;50.920;5.350;2022-09-09T06:51:09;21.90;99.90
41668;DHT22;27356;50.920;5.350;2022-09-09T06:53:37;22.50;99.00
41668;DHT22;27356;50.920;5.350;2022-09-09T06:58:35;22.70;97.70
41668;DHT22;27356;50.920;5.350;2022-09-09T07:01:04;22.50;97.20
41668;DHT22;27356;50.920;5.350;2022-09-09T07:03:30;22.10;98.20
41668;DHT22;27356;50.920;5.350;2022-09-09T07:05:56;21.30;99.80
41668;DHT22;27356;50.920;5.350;2022-09-09T07:08:22;20.70;99.90
41668;DHT22;27356;50.920;5.350;2022-09-09T07:10:48;20.30;99.90
41668;DHT22;27356;50.920;5.350;2022-09-09T07:13:13;20.20;99.90
41668;DHT22;27356;50.920;5.350;2022-09-09T07:15:41;20.10;99.90
41668;DHT22;27356;50.920;5.350;2022-09-09T07:18:07;19.50;99.90
41668;DHT22;27356;50.920;5.350;2022-09-09T07:20:32;19.40;99.90
41668;DHT22;27356;50.920;5.350;2022-09-09T07:22:58;19.40;99.90
41668;DHT22;27356;50.920;5.350;2022-09-09T07:25:24;19.50;99.90
41668;DHT22;27356;50.920;5.350;2022-09-09T07:27:53;19.40;99.90
41668;DHT22;27356;50.920;5.350;2022-09-09T07:30:18;19.30;99.90
41668;DHT22;27356;50.920;5.350;2022-09-09T07:32:44;19.60;99.90
41668;DHT22;27356;50.920;5.350;2022-09-09T07:35:10;20.20;99.90
41668;DHT22;27356;50.920;5.350;2022-09-09T07:37:36;20.30;99.90
41668;DHT22;27356;50.920;5.350;2022-09-09T07:40:02;20.20;99.90
41668;DHT22;27356;50.920;5.350;2022-09-09T07:42:29;20.20;99.90
41668;DHT22;27356;50.920;5.350;2022-09-09T07:44:55;20.70;99.90
41668;DHT22;27356;50.920;5.350;2022-09-09T07:47:20;21.00;99.90
41668;DHT22;27356;50.920;5.350;2022-09-09T07:49:46;21.00;99.90
41668;DHT22;27356;50.920;5.350;2022-09-09T07:52:12;20.80;99.90
41668;DHT22;27356;50.920;5.350;2022-09-09T07:54:37;20.90;99.90
41668;DHT22;27356;50.920;5.350;2022-09-09T07:57:03;20.80;99.90
41668;DHT22;27356;50.920;5.350;2022-09-09T07:59:29;20.80;99.90
41668;DHT22;27356;50.920;5.350;2022-09-09T08:01:55;20.60;99.90
41668;DHT22;27356;50.920;5.350;2022-09-09T08:04:22;20.60;99.90
41668;DHT22;27356;50.920;5.350;2022-09-09T08:06:49;20.60;99.90
41668;DHT22;27356;50.920;5.350;2022-09-09T08:09:14;20.60;99.90
41668;DHT22;27356;50.920;5.350;2022-09-09T08:11:40;20.50;99.90
41668;DHT22;27356;50.920;5.350;2022-09-09T08:14:07;20.20;99.90
41668;DHT22;27356;50.920;5.350;2022-09-09T08:16:33;20.00;99.90
41668;DHT22;27356;50.920;5.350;2022-09-09T08:19:02;20.00;99.90
41668;DHT22;27356;50.920;5.350;2022-09-09T08:21:28;20.10;99.90
41668;DHT22;27356;50.920;5.350;2022-09-09T08:23:54;20.00;99.90
41668;DHT22;27356;50.920;5.350;2022-09-09T08:26:27;20.00;99.90
41668;DHT22;27356;50.920;5.350;2022-09-09T08:28:54;19.80;99.90
41668;DHT22;27356;50.920;5.350;2022-09-09T08:31:22;19.70;99.90
41668;DHT22;27356;50.920;5.350;2022-09-09T08:33:48;19.80;99.90
41668;DHT22;27356;50.920;5.350;2022-09-09T08:36:15;19.50;99.90
41668;DHT22;27356;50.920;5.350;2022-09-09T08:38:42;19.30;99.90
41668;DHT22;27356;50.920;5.350;2022-09-09T08:41:16;19.30;99.90
41668;DHT22;27356;50.920;5.350;2022-09-09T08:43:46;19.10;99.90
41668;DHT22;27356;50.920;5.350;2022-09-09T08:46:22;19.20;99.90
41668;DHT22;27356;50.920;5.350;2022-09-09T08:51:34;19.10;99.90
41668;DHT22;27356;50.920;5.350;2022-09-09T08:53:59;19.10;99.90
41668;DHT22;27356;50.920;5.350;2022-09-09T08:56:27;19.00;99.90
41668;DHT22;27356;50.920;5.350;2022-09-09T08:58:56;19.00;99.90
41668;DHT22;27356;50.920;5.350;2022-09-09T09:11:53;18.80;99.90
41668;DHT22;27356;50.920;5.350;2022-09-09T09:14:23;18.90;99.90
41668;DHT22;27356;50.920;5.350;2022-09-09T09:16:59;19.10;99.90
41668;DHT22;27356;50.920;5.350;2022-09-09T09:19:25;19.10;99.90
41668;DHT22;27356;50.920;5.350;2022-09-09T09:22:03;18.90;99.90
41668;DHT22;27356;50.920;5.350;2022-09-09T09:27:04;19.30;99.90
41668;DHT22;27356;50.920;5.350;2022-09-09T09:29:34;19.40;99.90
41668;DHT22;27356;50.920;5.350;2022-09-09T09:32:00;19.20;99.90
41668;DHT22;27356;50.920;5.350;2022-09-09T09:34:27;19.30;99.90
41668;DHT22;27356;50.920;5.350;2022-09-09T09:36:55;19.10;99.90
41668;DHT22;27356;50.920;5.350;2022-09-09T09:39:25;19.20;99.90
41668;DHT22;27356;50.920;5.350;2022-09-09T09:41:52;19.40;99.90
41668;DHT22;27356;50.920;5.350;2022-09-09T09:46:49;20.00;99.90
41668;DHT22;27356;50.920;5.350;2022-09-09T09:49:15;20.30;99.90
41668;DHT22;27356;50.920;5.350;2022-09-09T09:51:41;20.30;99.90
41668;DHT22;27356;50.920;5.350;2022-09-09T09:56:38;20.50;99.90
41668;DHT22;27356;50.920;5.350;2022-09-09T09:59:04;20.50;99.90
41668;DHT22;27356;50.920;5.350;2022-09-09T10:01:31;20.50;99.90
41668;DHT22;27356;50.920;5.350;2022-09-09T10:03:59;20.40;99.90
41668;DHT22;27356;50.920;5.350;2022-09-09T10:09:40;20.00;99.90
41668;DHT22;27356;50.920;5.350;2022-09-09T10:14:44;19.60;99.90
41668;DHT22;27356;50.920;5.350;2022-09-09T10:19:37;19.70;99.90
41668;DHT22;27356;50.920;5.350;2022-09-09T10:22:12;19.60;99.90
41668;DHT22;27356;50.920;5.350;2022-09-09T10:32:41;18.60;99.90
41668;DHT22;27356;50.920;5.350;2022-09-09T10:40:43;18.00;99.90
41668;DHT22;27356;50.920;5.350;2022-09-09T10:51:27;17.90;99.90
41668;DHT22;27356;50.920;5.350;2022-09-09T10:56:20;18.00;99.90
41668;DHT22;27356;50.920;5.350;2022-09-09T11:01:41;18.50;99.90
41668;DHT22;27356;50.920;5.350;2022-09-09T11:04:16;18.70;99.90
41668;DHT22;27356;50.920;5.350;2022-09-09T11:06:44;18.80;99.90
41668;DHT22;27356;50.920;5.350;2022-09-09T11:09:14;19.00;99.90
41668;DHT22;27356;50.920;5.350;2022-09-09T11:11:53;19.10;99.90
41668;DHT22;27356;50.920;5.350;2022-09-09T11:16:49;19.40;99.90
41668;DHT22;27356;50.920;5.350;2022-09-09T11:21:52;19.20;99.90
41668;DHT22;27356;50.920;5.350;2022-09-09T11:27:06;19.50;99.90
41668;DHT22;27356;50.920;5.350;2022-09-09T11:37:44;20.60;99.90
41668;DHT22;27356;50.920;5.350;2022-09-09T11:40:32;20.70;99.90
41668;DHT22;27356;50.920;5.350;2022-09-09T11:43:02;20.90;99.90
41668;DHT22;27356;50.920;5.350;2022-09-09T11:45:29;21.10;99.90
41668;DHT22;27356;50.920;5.350;2022-09-09T11:47:59;21.20;99.90
41668;DHT22;27356;50.920;5.350;2022-09-09T11:52:50;21.50;99.90
41668;DHT22;27356;50.920;5.350;2022-09-09T11:58:03;21.30;99.90
41668;DHT22;27356;50.920;5.350;2022-09-09T12:02:58;21.10;99.90
41668;DHT22;27356;50.920;5.350;2022-09-09T12:05:24;20.80;99.90
41668;DHT22;27356;50.920;5.350;2022-09-09T12:08:00;20.40;99.90
41668;DHT22;27356;50.920;5.350;2022-09-09T12:10:38;20.30;99.90
41668;DHT22;27356;50.920;5.350;2022-09-09T12:13:18;20.00;99.90
41668;DHT22;27356;50.920;5.350;2022-09-09T12:15:57;19.80;99.90
41668;DHT22;27356;50.920;5.350;2022-09-09T12:18:32;19.70;99.90
41668;DHT22;27356;50.920;5.350;2022-09-09T12:23:54;19.20;99.90
41668;DHT22;27356;50.920;5.350;2022-09-09T12:28:52;18.50;99.90
41668;DHT22;27356;50.920;5.350;2022-09-09T12:31:27;18.40;99.90
41668;DHT22;27356;50.920;5.350;2022-09-09T12:34:02;18.30;99.90
41668;DHT22;27356;50.920;5.350;2022-09-09T12:36:29;18.40;99.90
41668;DHT22;27356;50.920;5.350;2022-09-09T12:38:56;18.40;99.90
41668;DHT22;27356;50.920;5.350;2022-09-09T12:41:26;18.70;99.90
41668;DHT22;27356;50.920;5.350;2022-09-09T12:44:02;18.60;99.90
41668;DHT22;27356;50.920;5.350;2022-09-09T12:46:33;18.90;99.90
41668;DHT22;27356;50.920;5.350;2022-09-09T12:49:02;19.10;99.90
41668;DHT22;27356;50.920;5.350;2022-09-09T12:51:31;19.40;99.90
41668;DHT22;27356;50.920;5.350;2022-09-09T12:53:58;19.70;99.90
41668;DHT22;27356;50.920;5.350;2022-09-09T12:56:25;19.80;99.90
41668;DHT22;27356;50.920;5.350;2022-09-09T12:58:55;19.90;99.90
41668;DHT22;27356;50.920;5.350;2022-09-09T13:01:26;20.20;99.90
41668;DHT22;27356;50.920;5.350;2022-09-09T13:03:52;20.50;99.90
41668;DHT22;27356;50.920;5.350;2022-09-09T13:06:22;20.60;99.90
41668;DHT22;27356;50.920;5.350;2022-09-09T13:08:52;20.70;99.90
41668;DHT22;27356;50.920;5.350;2022-09-09T13:11:21;21.00;99.90
41668;DHT22;27356;50.920;5.350;2022-09-09T13:13:52;20.90;99.90
41668;DHT22;27356;50.920;5.350;2022-09-09T13:18:48;21.00;99.90
41668;DHT22;27356;50.920;5.350;2022-09-09T13:21:14;21.00;99.90
41668;DHT22;27356;50.920;5.350;2022-09-09T13:23:40;21.20;99.90
41668;DHT22;27356;50.920;5.350;2022-09-09T13:26:19;21.30;99.90
41668;DHT22;27356;50.920;5.350;2022-09-09T13:28:48;21.50;99.90
41668;DHT22;27356;50.920;5.350;2022-09-09T13:31:27;21.80;99.90
41668;DHT22;27356;50.920;5.350;2022-09-09T13:33:53;21.90;99.90
41668;DHT22;27356;50.920;5.350;2022-09-09T13:36:27;22.10;99.90
41668;DHT22;27356;50.920;5.350;2022-09-09T13:38:55;22.10;99.90
41668;DHT22;27356;50.920;5.350;2022-09-09T13:41:22;22.10;99.90
41668;DHT22;27356;50.920;5.350;2022-09-09T13:43:49;22.20;99.90
41668;DHT22;27356;50.920;5.350;2022-09-09T13:46:34;22.10;99.90
41668;DHT22;27356;50.920;5.350;2022-09-09T13:49:01;22.10;99.90
41668;DHT22;27356;50.920;5.350;2022-09-09T13:51:38;22.10;99.90
41668;DHT22;27356;50.920;5.350;2022-09-09T13:54:08;22.10;99.90
41668;DHT22;27356;50.920;5.350;2022-09-09T13:56:34;22.40;99.90
41668;DHT22;27356;50.920;5.350;2022-09-09T13:59:00;22.60;99.90
41668;DHT22;27356;50.920;5.350;2022-09-09T14:01:26;22.70;99.90
41668;DHT22;27356;50.920;5.350;2022-09-09T14:03:53;22.90;99.90
41668;DHT22;27356;50.920;5.350;2022-09-09T14:06:18;22.80;99.90
41668;DHT22;27356;50.920;5.350;2022-09-09T14:08:44;22.60;99.90
41668;DHT22;27356;50.920;5.350;2022-09-09T14:11:11;22.50;99.90
41668;DHT22;27356;50.920;5.350;2022-09-09T14:13:37;22.50;99.60
41668;DHT22;27356;50.920;5.350;2022-09-09T14:16:03;22.50;99.90
41668;DHT22;27356;50.920;5.350;2022-09-09T14:18:29;22.60;99.90
41668;DHT22;27356;50.920;5.350;2022-09-09T14:20:54;22.60;99.90
41668;DHT22;27356;50.920;5.350;2022-09-09T14:23:20;22.70;99.80
41668;DHT22;27356;50.920;5.350;2022-09-09T14:25:47;22.60;99.20
41668;DHT22;27356;50.920;5.350;2022-09-09T14:28:13;22.80;98.80
41668;DHT22;27356;50.920;5.350;2022-09-09T14:30:39;22.60;98.80
41668;DHT22;27356;50.920;5.350;2022-09-09T14:33:06;22.70;99.10
41668;DHT22;27356;50.920;5.350;2022-09-09T14:35:31;22.60;99.20
41668;DHT22;27356;50.920;5.350;2022-09-09T14:37:58;22.60;98.70
41668;DHT22;27356;50.920;5.350;2022-09-09T14:40:24;22.50;99.00
41668;DHT22;27356;50.920;5.350;2022-09-09T14:42:49;22.30;98.50
41668;DHT22;27356;50.920;5.350;2022-09-09T14:45:15;22.30;99.40
41668;DHT22;27356;50.920;5.350;2022-09-09T14:47:40;22.40;99.90
41668;DHT22;27356;50.920;5.350;2022-09-09T14:50:06;22.40;99.20
41668;DHT22;27356;50.920;5.350;2022-09-09T14:52:33;22.50;98.50
41668;DHT22;27356;50.920;5.350;2022-09-09T14:54:59;22.50;97.80
41668;DHT22;27356;50.920;5.350;2022-09-09T14:57:24;22.40;98.40
41668;DHT22;27356;50.920;5.350;2022-09-09T14:59:50;22.60;97.70
41668;DHT22;27356;50.920;5.350;2022-09-09T15:02:15;22.60;97.70
41668;DHT22;27356;50.920;5.350;2022-09-09T15:04:41;22.40;97.40
41668;DHT22;27356;50.920;5.350;2022-09-09T15:07:07;22.30;97.60
41668;DHT22;27356;50.920;5.350;2022-09-09T15:09:32;22.10;98.40
41668;DHT22;27356;50.920;5.350;2022-09-09T15:11:58;22.10;98.50
41668;DHT22;27356;50.920;5.350;2022-09-09T15:14:24;22.20;98.80
41668;DHT22;27356;50.920;5.350;2022-09-09T15:16:51;22.20;99.00
41668;DHT22;27356;50.920;5.350;2022-09-09T15:19:16;22.20;98.70
41668;DHT22;27356;50.920;5.350;2022-09-09T15:21:42;22.20;99.00
41668;DHT22;27356;50.920;5.350;2022-09-09T15:24:08;22.10;99.60
41668;DHT22;27356;50.920;5.350;2022-09-09T15:26:33;22.00;99.30
41668;DHT22;27356;50.920;5.350;2022-09-09T15:28:59;22.00;99.40
41668;DHT22;27356;50.920;5.350;2022-09-09T15:31:26;21.90;99.30
41668;DHT22;27356;50.920;5.350;2022-09-09T15:33:57;21.80;99.70
41668;DHT22;27356;50.920;5.350;2022-09-09T15:36:30;21.80;99.80
41668;DHT22;27356;50.920;5.350;2022-09-09T15:38:57;21.80;99.90
41668;DHT22;27356;50.920;5.350;2022-09-09T15:41:23;21.60;99.90
41668;DHT22;27356;50.920;5.350;2022-09-09T15:43:50;21.70;99.90
41668;DHT22;27356;50.920;5.350;2022-09-09T15:48:54;21.70;99.90
41668;DHT22;27356;50.920;5.350;2022-09-09T15:51:21;21.80;99.90
41668;DHT22;27356;50.920;5.350;2022-09-09T15:53:47;21.70;99.90
41668;DHT22;27356;50.920;5.350;2022-09-09T15:56:12;21.80;99.90
41668;DHT22;27356;50.920;5.350;2022-09-09T15:58:38;22.10;99.90
41668;DHT22;27356;50.920;5.350;2022-09-09T16:01:07;22.20;99.40
41668;DHT22;27356;50.920;5.350;2022-09-09T16:03:36;22.10;99.50
41668;DHT22;27356;50.920;5.350;2022-09-09T16:06:02;22.10;99.40
41668;DHT22;27356;50.920;5.350;2022-09-09T16:08:38;22.20;99.50
41668;DHT22;27356;50.920;5.350;2022-09-09T16:11:08;22.00;99.10
41668;DHT22;27356;50.920;5.350;2022-09-09T16:13:38;21.80;99.30
41668;DHT22;27356;50.920;5.350;2022-09-09T16:16:04;21.90;99.40
41668;DHT22;27356;50.920;5.350;2022-09-09T16:18:37;21.70;99.80
41668;DHT22;27356;50.920;5.350;2022-09-09T16:21:03;21.50;99.90
41668;DHT22;27356;50.920;5.350;2022-09-09T16:23:39;21.30;99.90
41668;DHT22;27356;50.920;5.350;2022-09-09T16:26:04;21.10;99.90
41668;DHT22;27356;50.920;5.350;2022-09-09T16:28:30;20.80;99.90
41668;DHT22;27356;50.920;5.350;2022-09-09T16:30:56;20.70;99.90
41668;DHT22;27356;50.920;5.350;2022-09-09T16:33:23;20.50;99.90
41668;DHT22;27356;50.920;5.350;2022-09-09T16:35:48;20.40;99.90
41668;DHT22;27356;50.920;5.350;2022-09-09T16:38:31;20.30;99.90
41668;DHT22;27356;50.920;5.350;2022-09-09T16:41:13;20.30;99.90
41668;DHT22;27356;50.920;5.350;2022-09-09T16:43:52;20.20;99.90
41668;DHT22;27356;50.920;5.350;2022-09-09T16:46:18;20.10;99.90
41668;DHT22;27356;50.920;5.350;2022-09-09T16:48:51;20.00;99.90
41668;DHT22;27356;50.920;5.350;2022-09-09T16:51:38;20.00;99.90
41668;DHT22;27356;50.920;5.350;2022-09-09T16:54:05;20.10;99.90
41668;DHT22;27356;50.920;5.350;2022-09-09T17:00:02;19.90;99.90
41668;DHT22;27356;50.920;5.350;2022-09-09T17:02:54;19.90;99.90
41668;DHT22;27356;50.920;5.350;2022-09-09T17:05:40;19.90;99.90
41668;DHT22;27356;50.920;5.350;2022-09-09T17:08:06;20.00;99.90
41668;DHT22;27356;50.920;5.350;2022-09-09T17:10:32;20.00;99.90
41668;DHT22;27356;50.920;5.350;2022-09-09T17:12:57;20.00;99.90
41668;DHT22;27356;50.920;5.350;2022-09-09T17:15:23;20.00;99.90
41668;DHT22;27356;50.920;5.350;2022-09-09T17:17:49;19.80;99.90
41668;DHT22;27356;50.920;5.350;2022-09-09T17:20:18;19.80;99.90
41668;DHT22;27356;50.920;5.350;2022-09-09T17:22:43;19.80;99.90
41668;DHT22;27356;50.920;5.350;2022-09-09T17:25:09;19.80;99.90
41668;DHT22;27356;50.920;5.350;2022-09-09T17:27:35;19.70;99.90
41668;DHT22;27356;50.920;5.350;2022-09-09T17:30:01;19.70;99.90
41668;DHT22;27356;50.920;5.350;2022-09-09T17:32:28;19.60;99.90
41668;DHT22;27356;50.920;5.350;2022-09-09T17:34:54;19.50;99.90
41668;DHT22;27356;50.920;5.350;2022-09-09T17:37:20;19.60;99.90
41668;DHT22;27356;50.920;5.350;2022-09-09T17:39:45;19.80;99.90
41668;DHT22;27356;50.920;5.350;2022-09-09T17:42:11;19.80;99.90
41668;DHT22;27356;50.920;5.350;2022-09-09T17:44:37;19.80;99.90
41668;DHT22;27356;50.920;5.350;2022-09-09T17:47:04;19.80;99.90
41668;DHT22;27356;50.920;5.350;2022-09-09T17:49:31;19.70;99.90
41668;DHT22;27356;50.920;5.350;2022-09-09T17:51:56;19.70;99.90
41668;DHT22;27356;50.920;5.350;2022-09-09T17:54:22;19.60;99.90
41668;DHT22;27356;50.920;5.350;2022-09-09T17:56:48;19.40;99.90
41668;DHT22;27356;50.920;5.350;2022-09-09T17:59:14;18.90;99.90